createdAt,value
2019-04-14T00:01:41.263Z,60.50
2019-04-14T00:03:59.023Z,60.50
2019-04-14T00:06:02.655Z,60.50
2019-04-14T00:08:06.667Z,60.40
2019-04-14T00:10:09.347Z,60.40
2019-04-14T00:12:12.102Z,60.60
2019-04-14T00:14:16.268Z,61.00
2019-04-14T00:16:19.039Z,60.80
2019-04-14T00:18:23.002Z,60.80
2019-04-14T00:20:25.068Z,61.00
2019-04-14T00:22:29.530Z,61.00
2019-04-14T00:24:31.330Z,61.20
2019-04-14T00:26:33.811Z,61.20
2019-04-14T00:28:36.767Z,61.30
2019-04-14T00:30:40.492Z,61.20
2019-04-14T00:32:53.600Z,61.00
2019-04-14T00:35:02.333Z,61.20
2019-04-14T00:37:06.094Z,61.00
2019-04-14T00:39:14.751Z,61.00
2019-04-14T00:41:34.327Z,61.00
2019-04-14T00:43:46.034Z,61.10
2019-04-14T00:45:53.564Z,61.40
2019-04-14T00:48:05.627Z,61.00
2019-04-14T00:50:02.010Z,61.10
2019-04-14T00:52:05.903Z,61.50
2019-04-14T00:54:08.855Z,61.50
2019-04-14T00:56:12.871Z,61.70
2019-04-14T00:58:17.093Z,61.80
2019-04-14T01:00:20.411Z,61.70
2019-04-14T01:02:23.205Z,61.80
2019-04-14T01:04:25.175Z,61.20
2019-04-14T01:06:29.324Z,62.00
2019-04-14T01:08:31.414Z,62.10
2019-04-14T01:10:34.403Z,62.20
2019-04-14T01:12:38.751Z,62.60
2019-04-14T01:14:40.929Z,62.50
2019-04-14T01:16:45.203Z,62.70
2019-04-14T01:18:47.684Z,62.60
2019-04-14T01:20:51.446Z,62.70
2019-04-14T01:22:55.277Z,62.90
2019-04-14T01:24:58.099Z,62.80
2019-04-14T01:27:01.714Z,62.80
2019-04-14T01:29:03.902Z,62.80
2019-04-14T01:31:07.657Z,62.90
2019-04-14T01:33:11.780Z,63.00
2019-04-14T01:35:13.874Z,63.00
2019-04-14T01:37:16.278Z,63.00
2019-04-14T01:39:19.919Z,63.00
2019-04-14T01:41:23.814Z,62.80
2019-04-14T01:43:25.715Z,62.80
2019-04-14T01:45:29.619Z,62.70
2019-04-14T01:47:31.882Z,62.60
2019-04-14T01:49:35.453Z,62.60
2019-04-14T01:51:41.739Z,62.70
2019-04-14T01:53:59.984Z,62.70
2019-04-14T01:56:08.010Z,62.80
2019-04-14T01:58:12.209Z,62.90
2019-04-14T02:00:29.239Z,62.80
2019-04-14T02:02:33.577Z,63.10
2019-04-14T02:04:35.707Z,63.00
2019-04-14T02:06:39.789Z,63.20
2019-04-14T02:08:43.554Z,63.60
2019-04-14T02:10:45.619Z,63.50
2019-04-14T02:12:49.512Z,63.70
2019-04-14T02:14:51.657Z,63.80
2019-04-14T02:16:58.862Z,64.00
2019-04-14T02:19:00.318Z,64.10
2019-04-14T02:21:04.188Z,64.10
2019-04-14T02:23:06.184Z,64.20
2019-04-14T02:25:09.961Z,64.20
2019-04-14T02:27:14.302Z,64.30
2019-04-14T02:29:17.224Z,64.30
2019-04-14T02:31:41.718Z,64.30
2019-04-14T02:34:00.698Z,64.30
2019-04-14T02:35:55.356Z,64.40
2019-04-14T02:38:04.719Z,64.50
2019-04-14T02:42:20.766Z,64.60
2019-04-14T02:46:12.257Z,64.30
2019-04-14T02:48:29.232Z,64.50
2019-04-14T02:50:20.861Z,64.50
2019-04-14T02:52:22.312Z,64.30
2019-04-14T02:58:36.499Z,65.00
2019-04-14T03:00:41.108Z,64.10
2019-04-14T03:02:36.766Z,64.30
2019-04-14T03:04:44.869Z,64.10
2019-04-14T03:06:52.204Z,65.20
2019-04-14T03:08:50.836Z,64.30
2019-04-14T03:10:59.323Z,64.30
2019-04-14T03:13:01.451Z,64.30
2019-04-14T03:15:03.499Z,64.40
2019-04-14T03:19:29.846Z,64.20
2019-04-14T03:25:34.010Z,64.30
2019-04-14T03:27:54.639Z,64.30
2019-04-14T03:30:26.175Z,65.00
2019-04-14T03:38:12.836Z,64.70
2019-04-14T03:40:08.576Z,64.70
2019-04-14T03:42:26.859Z,64.30
2019-04-14T03:44:18.659Z,65.00
2019-04-14T03:46:25.418Z,65.00
2019-04-14T03:48:48.271Z,65.00
2019-04-14T03:50:29.060Z,64.40
2019-04-14T03:52:45.223Z,65.00
2019-04-14T03:54:25.991Z,65.10
2019-04-14T03:56:25.119Z,65.10
2019-04-14T03:58:29.168Z,65.10
2019-04-14T04:00:31.537Z,65.10
2019-04-14T04:02:34.434Z,65.20
2019-04-14T04:04:38.039Z,65.20
2019-04-14T04:06:40.328Z,65.20
2019-04-14T04:08:44.190Z,65.20
2019-04-14T04:10:48.687Z,65.20
2019-04-14T04:12:51.186Z,65.10
2019-04-14T04:14:55.203Z,65.00
2019-04-14T04:16:57.634Z,65.00
2019-04-14T04:19:07.388Z,64.90
2019-04-14T04:21:05.968Z,64.90
2019-04-14T04:23:11.727Z,64.80
2019-04-14T04:25:16.143Z,64.80
2019-04-14T04:27:33.331Z,64.70
2019-04-14T04:29:46.994Z,64.70
2019-04-14T04:31:52.658Z,64.60
2019-04-14T04:33:58.641Z,64.60
2019-04-14T04:36:03.241Z,64.90
2019-04-14T04:38:07.981Z,65.00
2019-04-14T04:40:23.262Z,65.00
2019-04-14T04:42:26.497Z,65.00
2019-04-14T04:44:29.187Z,65.00
2019-04-14T04:46:33.008Z,65.10
2019-04-14T04:48:35.047Z,65.20
2019-04-14T04:50:38.860Z,65.30
2019-04-14T04:52:42.928Z,65.50
2019-04-14T04:54:47.432Z,65.50
2019-04-14T04:56:49.646Z,65.30
2019-04-14T04:58:54.342Z,65.80
2019-04-14T05:00:57.659Z,65.40
2019-04-14T05:03:01.413Z,65.40
2019-04-14T05:05:03.578Z,65.40
2019-04-14T05:07:07.949Z,65.40
2019-04-14T05:09:27.420Z,65.30
2019-04-14T05:11:40.850Z,65.30
2019-04-14T05:13:44.664Z,65.20
2019-04-14T05:15:47.422Z,65.10
2019-04-14T05:17:51.666Z,65.10
2019-04-14T05:19:54.047Z,65.20
2019-04-14T05:21:56.171Z,65.20
2019-04-14T05:24:00.656Z,64.70
2019-04-14T05:26:02.847Z,65.10
2019-04-14T05:28:06.953Z,65.30
2019-04-14T05:30:11.185Z,65.10
2019-04-14T05:32:15.120Z,65.10
2019-04-14T05:34:17.310Z,65.00
2019-04-14T05:36:19.646Z,65.00
2019-04-14T05:38:23.616Z,65.00
2019-04-14T05:40:25.667Z,64.80
2019-04-14T05:42:28.987Z,64.80
2019-04-14T05:44:31.899Z,64.70
2019-04-14T05:46:36.011Z,64.50
2019-04-14T05:48:40.388Z,64.40
2019-04-14T05:50:42.425Z,64.40
2019-04-14T05:52:45.311Z,64.30
2019-04-14T05:54:49.750Z,64.30
2019-04-14T05:56:53.751Z,64.10
2019-04-14T05:58:56.301Z,64.10
2019-04-14T06:01:00.227Z,64.20
2019-04-14T06:03:04.112Z,64.30
2019-04-14T06:05:08.905Z,64.30
2019-04-14T06:07:10.267Z,64.30
2019-04-14T06:09:13.262Z,64.50
2019-04-14T06:11:16.147Z,64.50
2019-04-14T06:13:19.131Z,64.60
2019-04-14T06:15:23.550Z,64.90
2019-04-14T06:17:26.429Z,64.80
2019-04-14T06:19:37.065Z,64.90
2019-04-14T06:21:32.406Z,65.00
2019-04-14T06:23:35.274Z,65.00
2019-04-14T06:25:38.192Z,65.00
2019-04-14T06:27:41.156Z,65.00
2019-04-14T06:29:44.023Z,65.00
2019-04-14T06:31:50.788Z,65.00
2019-04-14T06:33:59.444Z,65.00
2019-04-14T06:36:07.097Z,65.00
2019-04-14T06:38:09.973Z,65.00
2019-04-14T06:40:12.889Z,65.00
2019-04-14T06:42:15.751Z,65.00
2019-04-14T06:44:18.642Z,65.00
2019-04-14T06:46:22.330Z,64.60
2019-04-14T06:48:25.218Z,65.00
2019-04-14T06:50:28.291Z,65.20
2019-04-14T06:52:31.274Z,65.20
2019-04-14T06:54:34.175Z,65.20
2019-04-14T06:56:37.834Z,65.40
2019-04-14T06:58:40.840Z,65.30
2019-04-14T07:00:43.834Z,65.30
2019-04-14T07:02:49.163Z,65.50
2019-04-14T07:04:52.147Z,65.40
2019-04-14T07:06:56.565Z,65.40
2019-04-14T07:09:00.267Z,64.60
2019-04-14T07:11:03.171Z,65.20
2019-04-14T07:13:07.130Z,65.20
2019-04-14T07:15:10.038Z,65.10
2019-04-14T07:17:13.694Z,65.00
2019-04-14T07:19:16.572Z,64.90
2019-04-14T07:21:19.470Z,64.80
2019-04-14T07:23:22.345Z,64.80
2019-04-14T07:25:25.235Z,64.60
2019-04-14T07:27:28.126Z,64.50
2019-04-14T07:29:33.996Z,64.20
2019-04-14T07:31:38.091Z,64.00
2019-04-14T07:33:56.727Z,63.90
2019-04-14T07:36:05.447Z,63.80
2019-04-14T07:38:14.995Z,63.40
2019-04-14T07:40:21.206Z,63.10
2019-04-14T07:42:27.769Z,63.00
2019-04-14T07:44:32.048Z,63.00
2019-04-14T07:46:50.670Z,62.90
2019-04-14T07:48:58.239Z,62.80
2019-04-14T07:51:02.975Z,62.40
2019-04-14T07:53:25.581Z,62.20
2019-04-14T07:55:35.114Z,61.80
2019-04-14T07:57:56.832Z,61.50
2019-04-14T08:00:00.510Z,61.10
2019-04-14T08:02:04.245Z,61.00
2019-04-14T08:04:18.855Z,61.00
2019-04-14T08:06:21.732Z,60.90
2019-04-14T08:08:24.711Z,60.60
2019-04-14T08:10:27.624Z,60.60
2019-04-14T08:12:31.779Z,60.40
2019-04-14T08:14:34.795Z,61.10
2019-04-14T08:16:37.713Z,60.10
2019-04-14T08:18:41.671Z,59.90
2019-04-14T08:20:45.482Z,59.90
2019-04-14T08:22:48.386Z,59.90
2019-04-14T08:24:52.036Z,59.70
2019-04-14T08:26:55.050Z,59.60
2019-04-14T08:28:58.750Z,59.60
2019-04-14T08:31:02.418Z,59.30
2019-04-14T08:33:05.326Z,59.30
2019-04-14T08:35:09.747Z,58.90
2019-04-14T08:37:12.752Z,58.90
2019-04-14T08:39:16.426Z,58.70
2019-04-14T08:41:19.306Z,58.70
2019-04-14T08:43:22.223Z,58.50
2019-04-14T08:45:37.752Z,58.30
2019-04-14T08:47:41.210Z,58.30
2019-04-14T08:49:45.923Z,58.20
2019-04-14T08:52:07.557Z,58.30
2019-04-14T08:54:11.266Z,58.30
2019-04-14T08:56:14.619Z,58.20
2019-04-14T08:58:19.153Z,58.00
2019-04-14T09:00:23.538Z,57.80
2019-04-14T09:02:32.924Z,57.70
2019-04-14T09:04:41.797Z,57.60
2019-04-14T09:06:46.312Z,57.10
2019-04-14T09:08:51.946Z,57.00
2019-04-14T09:10:58.318Z,56.70
2019-04-14T09:13:01.315Z,56.40
2019-04-14T09:15:04.242Z,56.10
2019-04-14T09:17:08.291Z,56.10
2019-04-14T09:19:11.278Z,55.90
2019-04-14T09:21:14.158Z,55.70
2019-04-14T09:23:17.849Z,55.30
2019-04-14T09:25:21.838Z,55.40
2019-04-14T09:27:24.776Z,55.10
2019-04-14T09:29:27.927Z,55.00
2019-04-14T09:31:32.312Z,54.90
2019-04-14T09:33:35.494Z,54.80
2019-04-14T09:35:38.408Z,54.70
2019-04-14T09:37:42.862Z,54.20
2019-04-14T09:39:46.507Z,54.10
2019-04-14T09:41:49.514Z,54.00
2019-04-14T09:43:52.398Z,53.90
2019-04-14T09:45:55.613Z,53.80
2019-04-14T09:47:59.292Z,52.90
2019-04-14T09:50:02.979Z,52.60
2019-04-14T09:52:05.853Z,52.60
2019-04-14T09:54:08.806Z,52.30
2019-04-14T09:56:12.521Z,51.90
2019-04-14T09:58:16.074Z,51.90
2019-04-14T10:00:19.733Z,51.40
2019-04-14T10:02:22.624Z,51.30
2019-04-14T10:04:27.099Z,51.10
2019-04-14T10:06:30.015Z,50.80
2019-04-14T10:08:32.880Z,50.50
2019-04-14T10:10:35.775Z,50.30
2019-04-14T10:12:38.767Z,49.90
2019-04-14T10:14:41.702Z,48.90
2019-04-14T10:16:45.355Z,48.40
2019-04-14T10:18:49.044Z,47.90
2019-04-14T10:20:51.939Z,47.90
2019-04-14T10:22:54.810Z,47.60
2019-04-14T10:24:57.731Z,47.70
2019-04-14T10:27:00.625Z,47.80
2019-04-14T10:29:03.530Z,47.60
2019-04-14T10:31:06.539Z,47.60
2019-04-14T10:33:10.250Z,47.40
2019-04-14T10:35:13.899Z,47.20
2019-04-14T10:37:17.739Z,47.00
2019-04-14T10:39:21.134Z,47.00
2019-04-14T10:41:24.006Z,46.80
2019-04-14T10:43:27.026Z,46.70
2019-04-14T10:45:30.656Z,46.40
2019-04-14T10:47:34.592Z,46.40
2019-04-14T10:49:39.010Z,46.30
2019-04-14T10:51:41.995Z,46.20
2019-04-14T10:53:44.894Z,46.20
2019-04-14T10:55:48.923Z,45.80
2019-04-14T10:57:53.337Z,45.90
2019-04-14T10:59:57.742Z,45.80
2019-04-14T11:02:01.399Z,45.70
2019-04-14T11:04:04.279Z,45.10
2019-04-14T11:06:08.055Z,44.70
2019-04-14T11:08:12.115Z,44.60
2019-04-14T11:10:14.998Z,44.60
2019-04-14T11:12:18.681Z,44.50
2019-04-14T11:14:21.665Z,44.40
2019-04-14T11:16:26.085Z,43.50
2019-04-14T11:18:29.651Z,43.50
2019-04-14T11:20:32.530Z,42.70
2019-04-14T11:22:35.438Z,42.90
2019-04-14T11:24:38.434Z,43.40
2019-04-14T11:26:41.411Z,43.70
2019-04-14T11:28:44.294Z,43.80
2019-04-14T11:30:47.282Z,44.50
2019-04-14T11:33:05.888Z,43.80
2019-04-14T11:35:08.783Z,43.20
2019-04-14T11:37:12.627Z,43.40
2019-04-14T11:39:16.285Z,43.00
2019-04-14T11:41:20.146Z,43.00
2019-04-14T11:43:23.969Z,43.10
2019-04-14T11:45:26.839Z,43.00
2019-04-14T11:47:30.599Z,43.10
2019-04-14T11:49:33.638Z,43.00
2019-04-14T11:51:37.329Z,43.10
2019-04-14T11:53:41.145Z,42.40
2019-04-14T11:55:44.755Z,41.70
2019-04-14T11:57:47.635Z,41.70
2019-04-14T11:59:50.967Z,41.80
2019-04-14T12:01:56.517Z,41.90
2019-04-14T12:04:01.271Z,41.90
2019-04-14T12:06:04.697Z,41.80
2019-04-14T12:08:11.316Z,41.00
2019-04-14T12:10:14.174Z,40.90
2019-04-14T12:12:18.882Z,40.40
2019-04-14T12:14:23.747Z,40.30
2019-04-14T12:16:27.370Z,40.80
2019-04-14T12:18:30.281Z,40.30
2019-04-14T12:20:33.191Z,40.60
2019-04-14T12:22:36.906Z,40.20
2019-04-14T12:24:40.540Z,40.00
2019-04-14T12:26:44.090Z,39.80
2019-04-14T12:28:49.277Z,39.20
2019-04-14T12:30:51.215Z,39.20
2019-04-14T12:32:54.882Z,38.30
2019-04-14T12:34:57.858Z,38.30
2019-04-14T12:37:01.510Z,38.30
2019-04-14T12:39:04.390Z,38.20
2019-04-14T12:41:08.248Z,38.10
2019-04-14T12:43:15.934Z,38.20
2019-04-14T12:45:22.053Z,37.60
2019-04-14T12:47:36.433Z,37.50
2019-04-14T12:49:34.358Z,36.80
2019-04-14T12:51:37.243Z,36.70
2019-04-14T12:53:40.179Z,37.20
2019-04-14T12:55:43.022Z,37.50
2019-04-14T12:57:48.391Z,37.50
2019-04-14T12:59:51.434Z,37.40
2019-04-14T13:01:58.224Z,37.60
2019-04-14T13:04:01.249Z,37.80
2019-04-14T13:06:05.730Z,38.00
2019-04-14T13:08:08.607Z,37.80
2019-04-14T13:10:12.103Z,37.60
2019-04-14T13:12:15.126Z,37.40
2019-04-14T13:14:18.758Z,36.70
2019-04-14T13:16:21.774Z,36.70
2019-04-14T13:18:24.767Z,36.50
2019-04-14T13:20:28.458Z,37.30
2019-04-14T13:22:34.270Z,36.70
2019-04-14T13:24:35.051Z,36.60
2019-04-14T13:26:38.846Z,37.00
2019-04-14T13:28:42.217Z,37.00
2019-04-14T13:30:45.107Z,37.10
2019-04-14T13:32:49.539Z,36.80
2019-04-14T13:34:52.446Z,36.80
2019-04-14T13:36:56.099Z,37.70
2019-04-14T13:39:00.183Z,37.00
2019-04-14T13:41:05.022Z,36.90
2019-04-14T13:43:08.702Z,36.90
2019-04-14T13:45:12.459Z,36.90
2019-04-14T13:47:16.487Z,36.80
2019-04-14T13:49:20.174Z,36.40
2019-04-14T13:51:23.838Z,36.30
2019-04-14T13:53:26.767Z,36.20
2019-04-14T13:55:30.455Z,36.40
2019-04-14T13:57:33.417Z,36.40
2019-04-14T13:59:36.310Z,36.60
2019-04-14T14:01:40.101Z,36.60
2019-04-14T14:03:43.774Z,36.30
2019-04-14T14:05:46.648Z,36.30
2019-04-14T14:07:49.565Z,36.10
2019-04-14T14:09:52.446Z,35.60
2019-04-14T14:11:56.892Z,35.50
2019-04-14T14:14:01.086Z,35.20
2019-04-14T14:16:10.334Z,34.80
2019-04-14T14:18:31.066Z,35.00
2019-04-14T14:20:38.792Z,34.90
2019-04-14T14:22:58.663Z,35.10
2019-04-14T14:24:50.053Z,35.00
2019-04-14T14:26:53.170Z,34.90
2019-04-14T14:28:56.070Z,34.70
2019-04-14T14:31:00.205Z,34.80
2019-04-14T14:33:03.155Z,34.70
2019-04-14T14:35:06.844Z,35.30
2019-04-14T14:37:09.724Z,35.10
2019-04-14T14:39:12.714Z,35.00
2019-04-14T14:41:15.629Z,35.00
2019-04-14T14:43:19.010Z,34.80
2019-04-14T14:45:35.523Z,35.10
2019-04-14T14:47:38.402Z,35.00
2019-04-14T14:49:42.043Z,34.80
2019-04-14T14:51:46.715Z,34.90
2019-04-14T14:53:49.574Z,34.80
2019-04-14T14:55:53.586Z,33.80
2019-04-14T14:57:57.305Z,34.20
2019-04-14T15:00:01.690Z,34.30
2019-04-14T15:02:04.575Z,34.30
2019-04-14T15:04:07.482Z,34.40
2019-04-14T15:06:11.114Z,34.80
2019-04-14T15:08:14.004Z,34.70
2019-04-14T15:10:17.124Z,34.70
2019-04-14T15:12:20.003Z,34.50
2019-04-14T15:14:22.882Z,34.40
2019-04-14T15:16:25.810Z,34.60
2019-04-14T15:18:29.469Z,35.10
2019-04-14T15:20:33.198Z,35.20
2019-04-14T15:22:36.715Z,35.20
2019-04-14T15:24:39.600Z,35.40
2019-04-14T15:26:42.540Z,35.70
2019-04-14T15:28:45.478Z,36.40
2019-04-14T15:30:49.063Z,35.80
2019-04-14T15:32:52.782Z,35.90
2019-04-14T15:34:55.783Z,35.70
2019-04-14T15:36:59.430Z,35.80
2019-04-14T15:39:02.335Z,35.80
2019-04-14T15:41:05.226Z,35.80
2019-04-14T15:43:08.094Z,35.60
2019-04-14T15:45:13.768Z,35.60
2019-04-14T15:47:13.891Z,35.80
2019-04-14T15:49:16.762Z,35.90
2019-04-14T15:51:19.666Z,35.90
2019-04-14T15:53:22.638Z,35.80
2019-04-14T15:55:26.371Z,35.60
2019-04-14T15:57:30.862Z,35.60
2019-04-14T15:59:50.006Z,36.00
2019-04-14T16:02:08.656Z,36.00
2019-04-14T16:04:13.291Z,36.00
2019-04-14T16:06:23.366Z,36.90
2019-04-14T16:08:41.882Z,36.20
2019-04-14T16:11:00.026Z,36.10
2019-04-14T16:13:04.506Z,36.40
2019-04-14T16:15:11.135Z,36.70
2019-04-14T16:17:20.057Z,36.90
2019-04-14T16:19:31.291Z,37.00
2019-04-14T16:21:34.166Z,37.20
2019-04-14T16:23:49.763Z,37.40
2019-04-14T16:25:43.474Z,37.50
2019-04-14T16:27:56.259Z,37.70
2019-04-14T16:30:00.434Z,37.50
2019-04-14T16:32:05.244Z,37.40
2019-04-14T16:34:11.047Z,37.60
2019-04-14T16:36:14.775Z,37.80
2019-04-14T16:38:17.806Z,37.70
2019-04-14T16:40:20.687Z,37.70
2019-04-14T16:42:23.874Z,37.70
2019-04-14T16:44:26.899Z,37.90
2019-04-14T16:46:30.558Z,38.30
2019-04-14T16:48:33.430Z,38.20
2019-04-14T16:50:36.418Z,38.40
2019-04-14T16:52:58.107Z,38.60
2019-04-14T16:55:06.666Z,38.70
2019-04-14T16:57:18.278Z,38.60
2019-04-14T16:59:22.728Z,38.90
2019-04-14T17:01:26.383Z,38.70
2019-04-14T17:03:29.952Z,38.80
2019-04-14T17:05:32.960Z,38.80
2019-04-14T17:07:36.638Z,38.50
2019-04-14T17:09:39.651Z,38.50
2019-04-14T17:11:43.291Z,38.80
2019-04-14T17:13:46.172Z,38.60
2019-04-14T17:15:49.073Z,38.60
2019-04-14T17:17:57.746Z,38.60
2019-04-14T17:20:06.412Z,38.60
2019-04-14T17:22:19.240Z,38.70
2019-04-14T17:24:23.785Z,38.60
2019-04-14T17:26:33.167Z,38.70
2019-04-14T17:28:57.770Z,38.60
2019-04-14T17:31:05.270Z,38.80
2019-04-14T17:33:23.042Z,38.80
2019-04-14T17:35:29.030Z,39.00
2019-04-14T17:37:37.542Z,39.00
2019-04-14T17:39:43.390Z,39.10
2019-04-14T17:41:49.199Z,39.10
2019-04-14T17:43:52.994Z,39.00
2019-04-14T17:45:58.315Z,39.00
2019-04-14T17:48:16.851Z,39.90
2019-04-14T17:50:23.420Z,39.20
2019-04-14T17:52:36.977Z,39.20
2019-04-14T17:54:44.383Z,39.30
2019-04-14T17:56:48.187Z,39.20
2019-04-14T17:59:01.879Z,39.30
2019-04-14T18:01:12.306Z,39.60
2019-04-14T18:03:31.913Z,40.20
2019-04-14T18:05:36.308Z,39.80
2019-04-14T18:07:41.045Z,39.80
2019-04-14T18:09:44.011Z,39.90
2019-04-14T18:11:50.670Z,40.00
2019-04-14T18:14:06.336Z,40.10
2019-04-14T18:16:28.131Z,40.10
2019-04-14T18:18:47.462Z,40.30
2019-04-14T18:20:50.439Z,40.20
2019-04-14T18:22:53.337Z,40.30
2019-04-14T18:24:56.999Z,40.70
2019-04-14T18:27:00.624Z,40.70
2019-04-14T18:29:09.310Z,40.80
2019-04-14T18:31:16.842Z,41.00
2019-04-14T18:33:21.974Z,41.40
2019-04-14T18:35:25.626Z,41.10
2019-04-14T18:37:30.958Z,41.20
2019-04-14T18:39:35.716Z,41.40
2019-04-14T18:42:00.963Z,41.60
2019-04-14T18:44:07.209Z,41.50
2019-04-14T18:46:13.730Z,42.30
2019-04-14T18:48:19.376Z,41.60
2019-04-14T18:50:33.091Z,42.60
2019-04-14T18:52:36.930Z,42.80
2019-04-14T18:54:53.807Z,42.90
2019-04-14T18:56:51.029Z,43.00
2019-04-14T18:59:00.028Z,43.10
2019-04-14T19:01:07.222Z,43.10
2019-04-14T19:03:10.934Z,43.40
2019-04-14T19:05:14.866Z,43.70
2019-04-14T19:07:17.840Z,43.50
2019-04-14T19:09:20.982Z,43.70
2019-04-14T19:11:45.388Z,43.90
2019-04-14T19:13:49.001Z,43.80
2019-04-14T19:15:53.606Z,43.80
2019-04-14T19:18:03.692Z,44.10
2019-04-14T19:20:07.055Z,44.00
2019-04-14T19:22:10.652Z,44.10
2019-04-14T19:24:13.675Z,44.30
2019-04-14T19:26:16.824Z,44.40
2019-04-14T19:28:19.808Z,44.50
2019-04-14T19:30:22.678Z,44.60
2019-04-14T19:32:26.487Z,44.80
2019-04-14T19:34:29.393Z,44.80
2019-04-14T19:36:33.029Z,44.90
2019-04-14T19:38:38.413Z,45.10
2019-04-14T19:40:41.361Z,45.00
2019-04-14T19:42:45.154Z,45.80
2019-04-14T19:44:48.138Z,45.20
2019-04-14T19:46:51.112Z,45.30
2019-04-14T19:48:54.032Z,45.40
2019-04-14T19:50:57.843Z,45.50
2019-04-14T19:53:00.968Z,45.50
2019-04-14T19:55:04.115Z,45.50
2019-04-14T19:57:07.993Z,45.70
2019-04-14T19:59:11.721Z,46.10
2019-04-14T20:01:16.505Z,45.80
2019-04-14T20:03:19.735Z,45.80
2019-04-14T20:05:23.375Z,46.00
2019-04-14T20:07:26.379Z,45.90
2019-04-14T20:09:30.833Z,46.00
2019-04-14T20:11:32.139Z,46.00
2019-04-14T20:13:35.344Z,46.10
2019-04-14T20:15:53.300Z,46.20
2019-04-14T20:17:56.758Z,46.30
2019-04-14T20:20:13.913Z,46.40
2019-04-14T20:22:27.031Z,46.30
2019-04-14T20:24:40.970Z,46.30
2019-04-14T20:26:48.630Z,46.60
2019-04-14T20:28:54.825Z,46.40
2019-04-14T20:31:12.730Z,46.60
2019-04-14T20:33:16.786Z,46.80
2019-04-14T20:35:20.157Z,46.70
2019-04-14T20:37:23.547Z,46.90
2019-04-14T20:39:28.068Z,47.20
2019-04-14T20:41:31.360Z,47.20
2019-04-14T20:43:34.552Z,47.30
2019-04-14T20:45:37.592Z,47.30
2019-04-14T20:47:40.475Z,47.30
2019-04-14T20:49:43.419Z,47.30
2019-04-14T20:51:46.582Z,47.30
2019-04-14T20:53:49.974Z,47.50
2019-04-14T20:55:53.651Z,47.70
2019-04-14T20:57:57.438Z,47.80
2019-04-14T21:00:00.315Z,47.80
2019-04-14T21:02:20.958Z,47.70
2019-04-14T21:04:38.884Z,47.80
2019-04-14T21:06:47.039Z,47.90
2019-04-14T21:09:07.498Z,47.90
2019-04-14T21:11:22.172Z,48.00
2019-04-14T21:13:36.283Z,48.00
2019-04-14T21:15:39.207Z,48.10
2019-04-14T21:17:42.659Z,48.20
2019-04-14T21:19:48.910Z,48.50
2019-04-14T21:21:53.345Z,48.50
2019-04-14T21:23:56.421Z,48.60
2019-04-14T21:26:01.384Z,48.90
2019-04-14T21:28:03.763Z,48.90
2019-04-14T21:30:06.681Z,49.00
2019-04-14T21:32:22.031Z,49.70
2019-04-14T21:34:30.929Z,49.30
2019-04-14T21:36:34.028Z,49.30
2019-04-14T21:38:41.497Z,49.40
2019-04-14T21:40:48.195Z,49.60
2019-04-14T21:42:51.099Z,49.70
2019-04-14T21:44:54.839Z,50.50
2019-04-14T21:46:57.767Z,49.90
2019-04-14T21:49:00.747Z,49.90
2019-04-14T21:51:05.170Z,50.10
2019-04-14T21:53:08.184Z,50.00
2019-04-14T21:55:11.815Z,50.10
2019-04-14T21:57:33.062Z,50.20
2019-04-14T21:59:41.619Z,50.10
2019-04-14T22:02:02.327Z,50.00
2019-04-14T22:04:20.097Z,50.10
2019-04-14T22:06:25.519Z,50.00
2019-04-14T22:08:28.414Z,50.00
2019-04-14T22:10:35.335Z,50.10
2019-04-14T22:12:40.500Z,50.30
2019-04-14T22:14:44.626Z,50.40
2019-04-14T22:16:47.672Z,50.30
2019-04-14T22:18:51.905Z,50.60
2019-04-14T22:20:55.652Z,50.50
2019-04-14T22:23:00.682Z,50.60
2019-04-14T22:25:04.971Z,50.70
2019-04-14T22:27:07.915Z,50.70
2019-04-14T22:29:10.815Z,50.80
2019-04-14T22:31:14.563Z,50.90
2019-04-14T22:33:18.959Z,51.10
2019-04-14T22:35:23.079Z,51.10
2019-04-14T22:37:25.955Z,51.10
2019-04-14T22:39:28.823Z,51.20
2019-04-14T22:41:31.858Z,51.20
2019-04-14T22:43:35.484Z,51.30
2019-04-14T22:45:39.070Z,51.30
2019-04-14T22:47:42.423Z,51.30
2019-04-14T22:49:46.069Z,51.40
2019-04-14T22:51:48.934Z,51.30
2019-04-14T22:53:51.847Z,51.40
2019-04-14T22:55:54.903Z,51.40
2019-04-14T22:57:57.783Z,51.50
2019-04-14T23:00:01.295Z,51.40
2019-04-14T23:02:05.767Z,51.40
2019-04-14T23:04:13.094Z,51.40
2019-04-14T23:06:16.855Z,51.40
2019-04-14T23:08:20.491Z,51.30
2019-04-14T23:10:29.663Z,51.30
2019-04-14T23:12:33.340Z,51.30
2019-04-14T23:14:40.163Z,51.20
2019-04-14T23:16:50.387Z,51.30
2019-04-14T23:18:59.006Z,51.30
2019-04-14T23:21:19.346Z,51.30
2019-04-14T23:23:24.036Z,51.20
2019-04-14T23:25:27.752Z,51.30
2019-04-14T23:27:31.385Z,51.30
2019-04-14T23:29:35.146Z,51.40
2019-04-14T23:31:38.791Z,51.60
2019-04-14T23:33:41.699Z,51.40
2019-04-14T23:35:44.698Z,51.40
2019-04-14T23:37:47.565Z,51.40
2019-04-14T23:39:50.458Z,51.60
2019-04-14T23:41:53.879Z,51.70
2019-04-14T23:43:57.131Z,51.70
2019-04-14T23:45:59.995Z,51.60
2019-04-14T23:48:03.013Z,51.70
2019-04-14T23:50:06.825Z,51.70
2019-04-14T23:52:09.724Z,51.90
2019-04-14T23:54:12.614Z,52.00
2019-04-14T23:56:15.775Z,52.00
2019-04-14T23:58:19.820Z,52.30
